sensor_id;sensor_type;location;lat;lon;timestamp;temperature;humidity
5415;DHT22;2730;51.512;7.504;2022-07-25T05:00:58;23.40;99.90
5415;DHT22;2730;51.512;7.504;2022-07-25T05:03:28;23.50;99.90
5415;DHT22;2730;51.512;7.504;2022-07-25T05:05:57;23.70;99.90
5415;DHT22;2730;51.512;7.504;2022-07-25T05:09:06;23.80;99.90
5415;DHT22;2730;51.512;7.504;2022-07-25T05:11:47;24.00;99.90
5415;DHT22;2730;51.512;7.504;2022-07-25T05:14:14;24.10;99.90
5415;DHT22;2730;51.512;7.504;2022-07-25T05:16:42;24.20;99.90
5415;DHT22;2730;51.512;7.504;2022-07-25T05:19:09;24.30;99.90
5415;DHT22;2730;51.512;7.504;2022-07-25T05:21:36;24.30;99.90
5415;DHT22;2730;51.512;7.504;2022-07-25T05:24:04;24.40;99.90
5415;DHT22;2730;51.512;7.504;2022-07-25T05:26:30;24.50;99.90
5415;DHT22;2730;51.512;7.504;2022-07-25T05:28:57;24.60;99.90
5415;DHT22;2730;51.512;7.504;2022-07-25T05:31:24;24.70;99.90
5415;DHT22;2730;51.512;7.504;2022-07-25T05:33:52;24.70;99.90
5415;DHT22;2730;51.512;7.504;2022-07-25T05:36:19;24.80;99.90
5415;DHT22;2730;51.512;7.504;2022-07-25T05:38:46;24.90;99.90
5415;DHT22;2730;51.512;7.504;2022-07-25T05:41:13;25.00;99.90
5415;DHT22;2730;51.512;7.504;2022-07-25T05:43:40;25.00;99.90
5415;DHT22;2730;51.512;7.504;2022-07-25T05:46:10;25.20;99.90
5415;DHT22;2730;51.512;7.504;2022-07-25T05:48:37;25.20;99.90
5415;DHT22;2730;51.512;7.504;2022-07-25T05:51:05;25.40;99.90
5415;DHT22;2730;51.512;7.504;2022-07-25T05:53:32;25.50;99.90
5415;DHT22;2730;51.512;7.504;2022-07-25T05:55:59;25.70;99.90
5415;DHT22;2730;51.512;7.504;2022-07-25T05:58:26;25.80;99.90
5415;DHT22;2730;51.512;7.504;2022-07-25T06:00:53;25.90;99.90
5415;DHT22;2730;51.512;7.504;2022-07-25T06:03:20;25.90;99.90
5415;DHT22;2730;51.512;7.504;2022-07-25T06:05:47;26.00;99.90
5415;DHT22;2730;51.512;7.504;2022-07-25T06:08:15;26.10;99.90
5415;DHT22;2730;51.512;7.504;2022-07-25T06:10:42;26.20;99.90
5415;DHT22;2730;51.512;7.504;2022-07-25T06:13:09;26.30;99.90
5415;DHT22;2730;51.512;7.504;2022-07-25T06:15:36;26.40;99.90
5415;DHT22;2730;51.512;7.504;2022-07-25T06:18:03;26.60;99.90
5415;DHT22;2730;51.512;7.504;2022-07-25T06:20:30;27.00;99.90
5415;DHT22;2730;51.512;7.504;2022-07-25T06:22:57;27.60;99.90
5415;DHT22;2730;51.512;7.504;2022-07-25T06:25:25;28.40;99.90
5415;DHT22;2730;51.512;7.504;2022-07-25T06:27:52;29.10;99.30
5415;DHT22;2730;51.512;7.504;2022-07-25T06:30:19;29.80;98.60
5415;DHT22;2730;51.512;7.504;2022-07-25T06:32:46;30.70;97.10
5415;DHT22;2730;51.512;7.504;2022-07-25T06:35:13;30.80;96.30
5415;DHT22;2730;51.512;7.504;2022-07-25T06:37:39;30.50;95.90
5415;DHT22;2730;51.512;7.504;2022-07-25T06:40:07;30.40;95.60
5415;DHT22;2730;51.512;7.504;2022-07-25T06:42:38;30.30;96.20
5415;DHT22;2730;51.512;7.504;2022-07-25T06:45:06;30.00;95.60
5415;DHT22;2730;51.512;7.504;2022-07-25T06:47:34;29.70;95.90
5415;DHT22;2730;51.512;7.504;2022-07-25T06:50:01;29.40;96.10
5415;DHT22;2730;51.512;7.504;2022-07-25T06:52:28;29.40;96.50
5415;DHT22;2730;51.512;7.504;2022-07-25T06:54:54;29.20;96.30
5415;DHT22;2730;51.512;7.504;2022-07-25T06:57:21;29.10;96.50
5415;DHT22;2730;51.512;7.504;2022-07-25T06:59:49;29.00;97.00
5415;DHT22;2730;51.512;7.504;2022-07-25T07:02:16;29.50;96.90
5415;DHT22;2730;51.512;7.504;2022-07-25T07:04:43;29.60;96.30
5415;DHT22;2730;51.512;7.504;2022-07-25T07:07:10;29.60;96.40
5415;DHT22;2730;51.512;7.504;2022-07-25T07:09:37;29.40;96.80
5415;DHT22;2730;51.512;7.504;2022-07-25T07:12:04;29.50;96.70
5415;DHT22;2730;51.512;7.504;2022-07-25T07:14:31;29.50;96.50
5415;DHT22;2730;51.512;7.504;2022-07-25T07:16:59;29.40;96.50
5415;DHT22;2730;51.512;7.504;2022-07-25T07:19:26;29.30;97.00
5415;DHT22;2730;51.512;7.504;2022-07-25T07:21:53;29.10;96.50
5415;DHT22;2730;51.512;7.504;2022-07-25T07:24:20;29.10;97.00
5415;DHT22;2730;51.512;7.504;2022-07-25T07:26:47;29.10;96.50
5415;DHT22;2730;51.512;7.504;2022-07-25T07:29:13;29.10;96.60
5415;DHT22;2730;51.512;7.504;2022-07-25T07:31:40;29.00;96.30
5415;DHT22;2730;51.512;7.504;2022-07-25T07:34:08;29.00;96.70
5415;DHT22;2730;51.512;7.504;2022-07-25T07:36:35;29.00;96.60
5415;DHT22;2730;51.512;7.504;2022-07-25T07:39:02;28.90;96.30
5415;DHT22;2730;51.512;7.504;2022-07-25T07:41:29;29.00;96.50
5415;DHT22;2730;51.512;7.504;2022-07-25T07:43:56;29.00;96.60
5415;DHT22;2730;51.512;7.504;2022-07-25T07:46:23;29.00;96.10
5415;DHT22;2730;51.512;7.504;2022-07-25T07:48:49;29.00;96.30
5415;DHT22;2730;51.512;7.504;2022-07-25T07:51:18;29.00;96.10
5415;DHT22;2730;51.512;7.504;2022-07-25T07:53:44;29.10;96.20
5415;DHT22;2730;51.512;7.504;2022-07-25T07:56:29;29.30;96.20
5415;DHT22;2730;51.512;7.504;2022-07-25T07:58:55;29.40;96.00
5415;DHT22;2730;51.512;7.504;2022-07-25T08:01:22;29.50;96.00
5415;DHT22;2730;51.512;7.504;2022-07-25T08:03:51;29.60;95.80
5415;DHT22;2730;51.512;7.504;2022-07-25T08:06:19;29.90;95.70
5415;DHT22;2730;51.512;7.504;2022-07-25T08:08:46;30.00;94.70
5415;DHT22;2730;51.512;7.504;2022-07-25T08:11:13;30.00;94.80
5415;DHT22;2730;51.512;7.504;2022-07-25T08:13:40;29.90;95.00
5415;DHT22;2730;51.512;7.504;2022-07-25T08:16:07;29.80;95.10
5415;DHT22;2730;51.512;7.504;2022-07-25T08:18:36;29.70;95.00
5415;DHT22;2730;51.512;7.504;2022-07-25T08:21:04;29.70;94.80
5415;DHT22;2730;51.512;7.504;2022-07-25T08:23:33;29.90;95.20
5415;DHT22;2730;51.512;7.504;2022-07-25T08:26:02;30.10;95.10
5415;DHT22;2730;51.512;7.504;2022-07-25T08:28:30;30.50;94.80
5415;DHT22;2730;51.512;7.504;2022-07-25T08:30:57;30.70;94.80
5415;DHT22;2730;51.512;7.504;2022-07-25T08:33:24;31.00;93.90
5415;DHT22;2730;51.512;7.504;2022-07-25T08:35:53;31.10;93.70
5415;DHT22;2730;51.512;7.504;2022-07-25T08:38:21;31.60;93.60
5415;DHT22;2730;51.512;7.504;2022-07-25T08:40:50;32.30;92.80
5415;DHT22;2730;51.512;7.504;2022-07-25T08:43:18;33.10;91.80
5415;DHT22;2730;51.512;7.504;2022-07-25T08:45:47;33.50;90.90
5415;DHT22;2730;51.512;7.504;2022-07-25T08:48:16;33.70;90.50
5415;DHT22;2730;51.512;7.504;2022-07-25T08:50:43;33.80;90.60
5415;DHT22;2730;51.512;7.504;2022-07-25T08:53:12;34.00;90.60
5415;DHT22;2730;51.512;7.504;2022-07-25T08:55:39;34.30;88.30
5415;DHT22;2730;51.512;7.504;2022-07-25T08:58:10;34.50;87.10
5415;DHT22;2730;51.512;7.504;2022-07-25T09:00:37;34.60;86.90
5415;DHT22;2730;51.512;7.504;2022-07-25T09:03:05;34.50;86.80
5415;DHT22;2730;51.512;7.504;2022-07-25T09:05:33;34.30;85.90
5415;DHT22;2730;51.512;7.504;2022-07-25T09:08:07;34.20;86.50
5415;DHT22;2730;51.512;7.504;2022-07-25T09:10:34;34.00;86.00
5415;DHT22;2730;51.512;7.504;2022-07-25T09:13:04;34.00;84.30
5415;DHT22;2730;51.512;7.504;2022-07-25T09:15:35;33.60;84.90
5415;DHT22;2730;51.512;7.504;2022-07-25T09:18:04;33.30;85.40
5415;DHT22;2730;51.512;7.504;2022-07-25T09:20:39;33.20;84.90
5415;DHT22;2730;51.512;7.504;2022-07-25T09:23:06;32.60;86.90
5415;DHT22;2730;51.512;7.504;2022-07-25T09:25:34;32.40;86.50
5415;DHT22;2730;51.512;7.504;2022-07-25T09:28:11;32.00;86.70
5415;DHT22;2730;51.512;7.504;2022-07-25T09:30:51;31.90;87.50
5415;DHT22;2730;51.512;7.504;2022-07-25T09:33:20;32.00;88.20
5415;DHT22;2730;51.512;7.504;2022-07-25T09:35:46;32.10;87.20
5415;DHT22;2730;51.512;7.504;2022-07-25T09:38:15;31.80;88.80
5415;DHT22;2730;51.512;7.504;2022-07-25T09:40:53;32.10;87.30
5415;DHT22;2730;51.512;7.504;2022-07-25T09:43:22;31.80;88.20
5415;DHT22;2730;51.512;7.504;2022-07-25T09:45:50;31.60;87.90
5415;DHT22;2730;51.512;7.504;2022-07-25T09:48:18;31.50;89.00
5415;DHT22;2730;51.512;7.504;2022-07-25T09:50:46;32.10;89.40
5415;DHT22;2730;51.512;7.504;2022-07-25T09:53:13;33.30;86.80
5415;DHT22;2730;51.512;7.504;2022-07-25T09:55:40;34.50;83.80
5415;DHT22;2730;51.512;7.504;2022-07-25T09:58:07;35.00;82.30
5415;DHT22;2730;51.512;7.504;2022-07-25T10:00:34;35.30;81.10
5415;DHT22;2730;51.512;7.504;2022-07-25T10:03:17;35.00;81.70
5415;DHT22;2730;51.512;7.504;2022-07-25T10:05:55;34.80;81.10
5415;DHT22;2730;51.512;7.504;2022-07-25T10:08:26;35.10;80.90
5415;DHT22;2730;51.512;7.504;2022-07-25T10:10:53;35.30;79.80
5415;DHT22;2730;51.512;7.504;2022-07-25T10:13:28;34.80;80.80
5415;DHT22;2730;51.512;7.504;2022-07-25T10:15:56;33.80;81.60
5415;DHT22;2730;51.512;7.504;2022-07-25T10:18:25;33.00;83.10
5415;DHT22;2730;51.512;7.504;2022-07-25T10:20:54;32.40;84.50
5415;DHT22;2730;51.512;7.504;2022-07-25T10:23:23;32.70;84.80
5415;DHT22;2730;51.512;7.504;2022-07-25T10:26:06;32.50;85.60
5415;DHT22;2730;51.512;7.504;2022-07-25T10:28:40;32.50;85.90
5415;DHT22;2730;51.512;7.504;2022-07-25T10:31:34;32.50;86.00
5415;DHT22;2730;51.512;7.504;2022-07-25T10:34:04;32.70;85.00
5415;DHT22;2730;51.512;7.504;2022-07-25T10:36:42;32.40;86.50
5415;DHT22;2730;51.512;7.504;2022-07-25T10:39:11;31.70;86.80
5415;DHT22;2730;51.512;7.504;2022-07-25T10:41:38;31.30;88.00
5415;DHT22;2730;51.512;7.504;2022-07-25T10:44:11;30.90;88.70
5415;DHT22;2730;51.512;7.504;2022-07-25T10:46:38;30.60;89.30
5415;DHT22;2730;51.512;7.504;2022-07-25T10:49:07;30.40;89.50
5415;DHT22;2730;51.512;7.504;2022-07-25T10:51:35;30.10;90.20
5415;DHT22;2730;51.512;7.504;2022-07-25T10:54:13;29.80;90.70
5415;DHT22;2730;51.512;7.504;2022-07-25T10:56:51;29.60;91.90
5415;DHT22;2730;51.512;7.504;2022-07-25T10:59:26;29.30;92.40
5415;DHT22;2730;51.512;7.504;2022-07-25T11:01:54;29.20;92.30
5415;DHT22;2730;51.512;7.504;2022-07-25T11:04:23;29.10;92.10
5415;DHT22;2730;51.512;7.504;2022-07-25T11:06:50;29.00;91.90
5415;DHT22;2730;51.512;7.504;2022-07-25T11:09:18;29.10;92.00
5415;DHT22;2730;51.512;7.504;2022-07-25T11:11:47;29.20;92.00
5415;DHT22;2730;51.512;7.504;2022-07-25T11:14:18;29.30;92.20
5415;DHT22;2730;51.512;7.504;2022-07-25T11:16:46;29.20;91.90
5415;DHT22;2730;51.512;7.504;2022-07-25T11:19:22;29.20;91.80
5415;DHT22;2730;51.512;7.504;2022-07-25T11:21:50;29.40;92.30
5415;DHT22;2730;51.512;7.504;2022-07-25T11:24:17;29.70;92.10
5415;DHT22;2730;51.512;7.504;2022-07-25T11:26:46;30.00;92.00
5415;DHT22;2730;51.512;7.504;2022-07-25T11:29:20;30.30;91.30
5415;DHT22;2730;51.512;7.504;2022-07-25T11:31:55;30.50;91.50
5415;DHT22;2730;51.512;7.504;2022-07-25T11:34:26;30.50;91.30
5415;DHT22;2730;51.512;7.504;2022-07-25T11:36:54;30.50;91.00
5415;DHT22;2730;51.512;7.504;2022-07-25T11:39:23;30.40;91.40
5415;DHT22;2730;51.512;7.504;2022-07-25T11:41:58;30.30;91.50
5415;DHT22;2730;51.512;7.504;2022-07-25T11:44:33;30.40;91.80
5415;DHT22;2730;51.512;7.504;2022-07-25T11:47:00;30.30;91.40
5415;DHT22;2730;51.512;7.504;2022-07-25T11:49:28;30.40;91.70
5415;DHT22;2730;51.512;7.504;2022-07-25T11:51:55;30.10;91.40
5415;DHT22;2730;51.512;7.504;2022-07-25T11:54:22;30.00;91.60
5415;DHT22;2730;51.512;7.504;2022-07-25T11:56:49;30.20;91.80
5415;DHT22;2730;51.512;7.504;2022-07-25T11:59:16;30.50;92.00
5415;DHT22;2730;51.512;7.504;2022-07-25T12:01:44;30.90;91.90
5415;DHT22;2730;51.512;7.504;2022-07-25T12:04:14;31.00;91.50
5415;DHT22;2730;51.512;7.504;2022-07-25T12:06:43;30.80;91.00
5415;DHT22;2730;51.512;7.504;2022-07-25T12:09:12;30.70;91.50
5415;DHT22;2730;51.512;7.504;2022-07-25T12:11:39;30.60;92.10
5415;DHT22;2730;51.512;7.504;2022-07-25T12:14:06;30.70;91.70
5415;DHT22;2730;51.512;7.504;2022-07-25T12:16:33;30.80;91.90
5415;DHT22;2730;51.512;7.504;2022-07-25T12:19:00;30.90;92.20
5415;DHT22;2730;51.512;7.504;2022-07-25T12:21:27;31.10;91.80
5415;DHT22;2730;51.512;7.504;2022-07-25T12:23:55;31.00;91.70
5415;DHT22;2730;51.512;7.504;2022-07-25T12:26:22;30.90;91.90
5415;DHT22;2730;51.512;7.504;2022-07-25T12:28:49;31.10;91.90
5415;DHT22;2730;51.512;7.504;2022-07-25T12:31:16;30.90;91.30
5415;DHT22;2730;51.512;7.504;2022-07-25T12:33:43;30.00;90.60
5415;DHT22;2730;51.512;7.504;2022-07-25T12:36:11;29.30;91.10
5415;DHT22;2730;51.512;7.504;2022-07-25T12:38:38;29.20;91.00
5415;DHT22;2730;51.512;7.504;2022-07-25T12:41:06;29.20;90.90
5415;DHT22;2730;51.512;7.504;2022-07-25T12:43:33;29.40;91.00
5415;DHT22;2730;51.512;7.504;2022-07-25T12:46:00;29.50;90.70
5415;DHT22;2730;51.512;7.504;2022-07-25T12:48:27;29.10;90.70
5415;DHT22;2730;51.512;7.504;2022-07-25T12:50:54;29.00;90.90
5415;DHT22;2730;51.512;7.504;2022-07-25T12:53:20;29.30;90.60
5415;DHT22;2730;51.512;7.504;2022-07-25T12:55:49;29.10;90.50
5415;DHT22;2730;51.512;7.504;2022-07-25T12:58:17;29.00;90.90
5415;DHT22;2730;51.512;7.504;2022-07-25T13:00:45;29.30;90.60
5415;DHT22;2730;51.512;7.504;2022-07-25T13:03:13;29.40;90.40
5415;DHT22;2730;51.512;7.504;2022-07-25T13:05:41;29.60;90.60
5415;DHT22;2730;51.512;7.504;2022-07-25T13:08:08;29.60;90.70
5415;DHT22;2730;51.512;7.504;2022-07-25T13:10:35;29.90;90.40
5415;DHT22;2730;51.512;7.504;2022-07-25T13:13:02;30.20;90.00
5415;DHT22;2730;51.512;7.504;2022-07-25T13:15:30;30.20;89.90
5415;DHT22;2730;51.512;7.504;2022-07-25T13:17:57;30.20;90.20
5415;DHT22;2730;51.512;7.504;2022-07-25T13:20:24;30.20;90.00
5415;DHT22;2730;51.512;7.504;2022-07-25T13:22:51;30.00;90.10
5415;DHT22;2730;51.512;7.504;2022-07-25T13:25:18;30.00;90.80
5415;DHT22;2730;51.512;7.504;2022-07-25T13:27:46;30.20;90.60
5415;DHT22;2730;51.512;7.504;2022-07-25T13:30:13;30.40;90.00
5415;DHT22;2730;51.512;7.504;2022-07-25T13:32:42;30.40;90.60
5415;DHT22;2730;51.512;7.504;2022-07-25T13:35:09;30.50;90.30
5415;DHT22;2730;51.512;7.504;2022-07-25T13:37:36;30.40;89.70
5415;DHT22;2730;51.512;7.504;2022-07-25T13:40:03;30.30;89.80
5415;DHT22;2730;51.512;7.504;2022-07-25T13:42:30;30.10;90.20
5415;DHT22;2730;51.512;7.504;2022-07-25T13:44:57;29.80;90.80
5415;DHT22;2730;51.512;7.504;2022-07-25T13:47:24;30.00;90.90
5415;DHT22;2730;51.512;7.504;2022-07-25T13:49:52;30.00;90.80
5415;DHT22;2730;51.512;7.504;2022-07-25T13:52:19;30.20;91.00
5415;DHT22;2730;51.512;7.504;2022-07-25T13:54:46;30.10;90.80
5415;DHT22;2730;51.512;7.504;2022-07-25T13:57:13;30.00;91.30
5415;DHT22;2730;51.512;7.504;2022-07-25T13:59:40;29.90;91.50
5415;DHT22;2730;51.512;7.504;2022-07-25T14:02:07;29.40;91.80
5415;DHT22;2730;51.512;7.504;2022-07-25T14:04:34;29.20;92.20
5415;DHT22;2730;51.512;7.504;2022-07-25T14:07:03;29.10;92.60
5415;DHT22;2730;51.512;7.504;2022-07-25T14:09:29;29.40;92.40
5415;DHT22;2730;51.512;7.504;2022-07-25T14:11:56;29.40;92.50
5415;DHT22;2730;51.512;7.504;2022-07-25T14:14:23;29.30;92.40
5415;DHT22;2730;51.512;7.504;2022-07-25T14:16:50;29.20;92.50
5415;DHT22;2730;51.512;7.504;2022-07-25T14:19:17;29.10;92.50
5415;DHT22;2730;51.512;7.504;2022-07-25T14:21:45;29.20;92.50
5415;DHT22;2730;51.512;7.504;2022-07-25T14:24:13;28.90;92.40
5415;DHT22;2730;51.512;7.504;2022-07-25T14:26:40;28.70;93.00
5415;DHT22;2730;51.512;7.504;2022-07-25T14:29:07;28.60;92.90
5415;DHT22;2730;51.512;7.504;2022-07-25T14:31:37;28.60;92.90
5415;DHT22;2730;51.512;7.504;2022-07-25T14:34:04;28.70;93.00
5415;DHT22;2730;51.512;7.504;2022-07-25T14:36:31;28.60;93.20
5415;DHT22;2730;51.512;7.504;2022-07-25T14:38:58;28.70;93.00
5415;DHT22;2730;51.512;7.504;2022-07-25T14:41:26;28.90;93.00
5415;DHT22;2730;51.512;7.504;2022-07-25T14:43:53;28.80;92.70
5415;DHT22;2730;51.512;7.504;2022-07-25T14:46:20;28.60;93.10
5415;DHT22;2730;51.512;7.504;2022-07-25T14:48:47;28.60;93.50
5415;DHT22;2730;51.512;7.504;2022-07-25T14:51:13;28.70;93.50
5415;DHT22;2730;51.512;7.504;2022-07-25T14:53:42;28.70;92.90
5415;DHT22;2730;51.512;7.504;2022-07-25T14:56:09;28.70;92.80
5415;DHT22;2730;51.512;7.504;2022-07-25T14:58:37;28.60;92.60
5415;DHT22;2730;51.512;7.504;2022-07-25T15:01:04;28.50;92.60
5415;DHT22;2730;51.512;7.504;2022-07-25T15:03:33;28.50;92.90
5415;DHT22;2730;51.512;7.504;2022-07-25T15:06:00;28.50;92.90
5415;DHT22;2730;51.512;7.504;2022-07-25T15:08:27;28.50;93.10
5415;DHT22;2730;51.512;7.504;2022-07-25T15:10:54;28.60;93.10
5415;DHT22;2730;51.512;7.504;2022-07-25T15:13:21;28.70;93.20
5415;DHT22;2730;51.512;7.504;2022-07-25T15:15:50;28.60;92.90
5415;DHT22;2730;51.512;7.504;2022-07-25T15:18:17;28.50;92.90
5415;DHT22;2730;51.512;7.504;2022-07-25T15:20:44;28.50;92.60
5415;DHT22;2730;51.512;7.504;2022-07-25T15:23:13;28.50;93.00
5415;DHT22;2730;51.512;7.504;2022-07-25T15:25:39;28.60;92.40
5415;DHT22;2730;51.512;7.504;2022-07-25T15:28:06;28.60;92.40
5415;DHT22;2730;51.512;7.504;2022-07-25T15:30:33;28.40;92.40
5415;DHT22;2730;51.512;7.504;2022-07-25T15:33:02;27.90;92.90
5415;DHT22;2730;51.512;7.504;2022-07-25T15:35:28;27.90;92.80
5415;DHT22;2730;51.512;7.504;2022-07-25T15:37:56;27.80;92.90
5415;DHT22;2730;51.512;7.504;2022-07-25T15:40:23;27.90;93.10
5415;DHT22;2730;51.512;7.504;2022-07-25T15:42:50;27.70;93.30
5415;DHT22;2730;51.512;7.504;2022-07-25T15:45:17;27.50;93.90
5415;DHT22;2730;51.512;7.504;2022-07-25T15:47:45;27.40;94.40
5415;DHT22;2730;51.512;7.504;2022-07-25T15:50:15;26.90;95.30
5415;DHT22;2730;51.512;7.504;2022-07-25T15:52:41;26.80;95.70
5415;DHT22;2730;51.512;7.504;2022-07-25T15:55:08;26.70;96.00
5415;DHT22;2730;51.512;7.504;2022-07-25T15:57:35;26.80;96.60
5415;DHT22;2730;51.512;7.504;2022-07-25T16:00:03;26.70;96.30
5415;DHT22;2730;51.512;7.504;2022-07-25T16:02:30;26.40;96.50
5415;DHT22;2730;51.512;7.504;2022-07-25T16:04:57;26.50;96.50
5415;DHT22;2730;51.512;7.504;2022-07-25T16:07:26;26.40;96.40
5415;DHT22;2730;51.512;7.504;2022-07-25T16:09:53;26.10;96.70
5415;DHT22;2730;51.512;7.504;2022-07-25T16:12:21;26.20;97.00
5415;DHT22;2730;51.512;7.504;2022-07-25T16:14:50;26.30;97.00
5415;DHT22;2730;51.512;7.504;2022-07-25T16:17:17;26.50;96.70
5415;DHT22;2730;51.512;7.504;2022-07-25T16:19:44;26.50;96.80
5415;DHT22;2730;51.512;7.504;2022-07-25T16:22:11;26.60;96.80
5415;DHT22;2730;51.512;7.504;2022-07-25T16:24:39;26.20;97.10
5415;DHT22;2730;51.512;7.504;2022-07-25T16:27:06;25.90;97.50
5415;DHT22;2730;51.512;7.504;2022-07-25T16:29:34;25.80;97.90
5415;DHT22;2730;51.512;7.504;2022-07-25T16:32:01;25.60;98.00
5415;DHT22;2730;51.512;7.504;2022-07-25T16:34:28;25.80;98.10
5415;DHT22;2730;51.512;7.504;2022-07-25T16:36:54;25.70;97.30
5415;DHT22;2730;51.512;7.504;2022-07-25T16:39:21;25.60;96.50
5415;DHT22;2730;51.512;7.504;2022-07-25T16:41:50;25.60;96.70
5415;DHT22;2730;51.512;7.504;2022-07-25T16:44:17;25.60;96.40
5415;DHT22;2730;51.512;7.504;2022-07-25T16:46:44;25.50;96.30
5415;DHT22;2730;51.512;7.504;2022-07-25T16:49:11;25.50;96.50
5415;DHT22;2730;51.512;7.504;2022-07-25T16:51:39;25.50;96.60
5415;DHT22;2730;51.512;7.504;2022-07-25T16:54:06;25.50;96.50
5415;DHT22;2730;51.512;7.504;2022-07-25T16:56:33;25.60;96.20
5415;DHT22;2730;51.512;7.504;2022-07-25T16:59:02;25.60;96.40
5415;DHT22;2730;51.512;7.504;2022-07-25T17:01:29;25.60;96.30
5415;DHT22;2730;51.512;7.504;2022-07-25T17:03:56;25.60;96.10
5415;DHT22;2730;51.512;7.504;2022-07-25T17:06:23;25.50;96.20
5415;DHT22;2730;51.512;7.504;2022-07-25T17:08:50;25.70;96.40
5415;DHT22;2730;51.512;7.504;2022-07-25T17:11:17;25.60;95.90
5415;DHT22;2730;51.512;7.504;2022-07-25T17:13:44;25.80;95.80
5415;DHT22;2730;51.512;7.504;2022-07-25T17:16:12;25.90;95.40
5415;DHT22;2730;51.512;7.504;2022-07-25T17:18:39;26.00;95.10
5415;DHT22;2730;51.512;7.504;2022-07-25T17:21:06;26.10;94.90
5415;DHT22;2730;51.512;7.504;2022-07-25T17:23:34;26.10;94.10
5415;DHT22;2730;51.512;7.504;2022-07-25T17:26:01;26.00;94.10
5415;DHT22;2730;51.512;7.504;2022-07-25T17:28:29;25.60;94.20
5415;DHT22;2730;51.512;7.504;2022-07-25T17:30:56;25.40;94.60
5415;DHT22;2730;51.512;7.504;2022-07-25T17:33:25;25.30;94.60
5415;DHT22;2730;51.512;7.504;2022-07-25T17:35:52;25.20;94.70
5415;DHT22;2730;51.512;7.504;2022-07-25T17:38:18;25.00;95.00
5415;DHT22;2730;51.512;7.504;2022-07-25T17:40:45;24.90;95.30
5415;DHT22;2730;51.512;7.504;2022-07-25T17:43:12;24.90;95.40
5415;DHT22;2730;51.512;7.504;2022-07-25T17:45:39;24.90;95.50
5415;DHT22;2730;51.512;7.504;2022-07-25T17:48:06;24.80;95.30
5415;DHT22;2730;51.512;7.504;2022-07-25T17:50:34;24.80;95.60
5415;DHT22;2730;51.512;7.504;2022-07-25T17:53:01;24.90;95.40
5415;DHT22;2730;51.512;7.504;2022-07-25T17:55:27;24.90;95.60
5415;DHT22;2730;51.512;7.504;2022-07-25T17:57:54;24.90;95.30
5415;DHT22;2730;51.512;7.504;2022-07-25T18:00:24;24.80;95.30
5415;DHT22;2730;51.512;7.504;2022-07-25T18:02:51;24.80;95.20
5415;DHT22;2730;51.512;7.504;2022-07-25T18:05:18;24.80;95.40
5415;DHT22;2730;51.512;7.504;2022-07-25T18:07:46;24.90;95.10
5415;DHT22;2730;51.512;7.504;2022-07-25T18:10:14;24.80;95.10
5415;DHT22;2730;51.512;7.504;2022-07-25T18:12:42;24.90;95.00
5415;DHT22;2730;51.512;7.504;2022-07-25T18:15:09;24.90;95.00
5415;DHT22;2730;51.512;7.504;2022-07-25T18:17:37;24.80;94.90
5415;DHT22;2730;51.512;7.504;2022-07-25T18:20:04;24.80;95.00
5415;DHT22;2730;51.512;7.504;2022-07-25T18:22:31;24.80;95.00
5415;DHT22;2730;51.512;7.504;2022-07-25T18:24:59;24.90;95.00
5415;DHT22;2730;51.512;7.504;2022-07-25T18:27:26;24.90;94.90
5415;DHT22;2730;51.512;7.504;2022-07-25T18:29:53;24.70;94.70
5415;DHT22;2730;51.512;7.504;2022-07-25T18:32:19;24.50;94.80
5415;DHT22;2730;51.512;7.504;2022-07-25T18:34:46;24.50;94.80
5415;DHT22;2730;51.512;7.504;2022-07-25T18:37:13;24.30;94.70
5415;DHT22;2730;51.512;7.504;2022-07-25T18:39:40;24.30;94.80
5415;DHT22;2730;51.512;7.504;2022-07-25T18:42:09;24.30;94.60
5415;DHT22;2730;51.512;7.504;2022-07-25T18:44:36;24.30;94.60
5415;DHT22;2730;51.512;7.504;2022-07-25T18:47:03;24.30;94.70
5415;DHT22;2730;51.512;7.504;2022-07-25T18:49:31;24.20;94.80
5415;DHT22;2730;51.512;7.504;2022-07-25T18:51:58;24.20;94.70
5415;DHT22;2730;51.512;7.504;2022-07-25T18:54:25;24.10;94.70
5415;DHT22;2730;51.512;7.504;2022-07-25T18:56:51;24.10;94.30
5415;DHT22;2730;51.512;7.504;2022-07-25T18:59:20;24.10;94.10
5415;DHT22;2730;51.512;7.504;2022-07-25T19:01:48;24.10;93.50
5415;DHT22;2730;51.512;7.504;2022-07-25T19:04:15;24.00;93.50
5415;DHT22;2730;51.512;7.504;2022-07-25T19:06:42;24.00;93.30
5415;DHT22;2730;51.512;7.504;2022-07-25T19:09:09;23.90;92.80
5415;DHT22;2730;51.512;7.504;2022-07-25T19:11:36;23.90;92.80
5415;DHT22;2730;51.512;7.504;2022-07-25T19:14:03;23.80;92.70
5415;DHT22;2730;51.512;7.504;2022-07-25T19:16:31;23.70;92.20
5415;DHT22;2730;51.512;7.504;2022-07-25T19:18:58;23.60;91.80
5415;DHT22;2730;51.512;7.504;2022-07-25T19:21:26;23.60;91.60
5415;DHT22;2730;51.512;7.504;2022-07-25T19:23:52;23.50;91.60
5415;DHT22;2730;51.512;7.504;2022-07-25T19:26:19;23.50;91.70
5415;DHT22;2730;51.512;7.504;2022-07-25T19:28:46;23.40;91.70
5415;DHT22;2730;51.512;7.504;2022-07-25T19:31:13;23.30;91.80
5415;DHT22;2730;51.512;7.504;2022-07-25T19:33:42;23.30;92.00
5415;DHT22;2730;51.512;7.504;2022-07-25T19:36:10;23.30;92.20
5415;DHT22;2730;51.512;7.504;2022-07-25T19:38:37;23.10;92.50
5415;DHT22;2730;51.512;7.504;2022-07-25T19:41:04;23.00;92.80
5415;DHT22;2730;51.512;7.504;2022-07-25T19:43:31;23.00;93.10
5415;DHT22;2730;51.512;7.504;2022-07-25T19:45:58;22.90;93.10
5415;DHT22;2730;51.512;7.504;2022-07-25T19:48:24;22.90;93.20
5415;DHT22;2730;51.512;7.504;2022-07-25T19:50:53;22.80;93.30
5415;DHT22;2730;51.512;7.504;2022-07-25T19:53:20;22.70;93.40
5415;DHT22;2730;51.512;7.504;2022-07-25T19:55:46;22.70;93.50
5415;DHT22;2730;51.512;7.504;2022-07-25T19:58:13;22.60;93.50
5415;DHT22;2730;51.512;7.504;2022-07-25T20:00:40;22.60;93.60
5415;DHT22;2730;51.512;7.504;2022-07-25T20:03:07;22.60;93.70
5415;DHT22;2730;51.512;7.504;2022-07-25T20:05:34;22.50;93.80
5415;DHT22;2730;51.512;7.504;2022-07-25T20:08:03;22.50;93.90
5415;DHT22;2730;51.512;7.504;2022-07-25T20:10:30;22.40;94.00
5415;DHT22;2730;51.512;7.504;2022-07-25T20:12:57;22.40;94.00
5415;DHT22;2730;51.512;7.504;2022-07-25T20:15:24;22.30;94.20
5415;DHT22;2730;51.512;7.504;2022-07-25T20:17:51;22.30;94.30
5415;DHT22;2730;51.512;7.504;2022-07-25T20:20:18;22.20;94.20
5415;DHT22;2730;51.512;7.504;2022-07-25T20:22:45;22.20;93.90
5415;DHT22;2730;51.512;7.504;2022-07-25T20:25:13;22.20;93.90
5415;DHT22;2730;51.512;7.504;2022-07-25T20:27:40;22.20;93.50
5415;DHT22;2730;51.512;7.504;2022-07-25T20:30:08;22.30;93.70
5415;DHT22;2730;51.512;7.504;2022-07-25T20:32:36;22.30;93.20
5415;DHT22;2730;51.512;7.504;2022-07-25T20:35:04;22.40;93.60
5415;DHT22;2730;51.512;7.504;2022-07-25T20:37:30;22.40;93.00
5415;DHT22;2730;51.512;7.504;2022-07-25T20:39:57;22.50;93.30
5415;DHT22;2730;51.512;7.504;2022-07-25T20:42:26;22.50;92.80
5415;DHT22;2730;51.512;7.504;2022-07-25T20:44:53;22.50;92.80
5415;DHT22;2730;51.512;7.504;2022-07-25T20:47:21;22.50;92.90
5415;DHT22;2730;51.512;7.504;2022-07-25T20:49:49;22.50;92.90
5415;DHT22;2730;51.512;7.504;2022-07-25T20:52:16;22.50;92.90
5415;DHT22;2730;51.512;7.504;2022-07-25T20:54:43;22.50;93.00
5415;DHT22;2730;51.512;7.504;2022-07-25T20:57:10;22.50;92.90
5415;DHT22;2730;51.512;7.504;2022-07-25T20:59:39;22.50;93.30
5415;DHT22;2730;51.512;7.504;2022-07-25T21:02:06;22.50;93.00
5415;DHT22;2730;51.512;7.504;2022-07-25T21:04:33;22.50;93.00
5415;DHT22;2730;51.512;7.504;2022-07-25T21:07:00;22.50;93.10